Richards, Texas
Current Conditions -  °F | °C
As of 6:53 AM on Sunday 23 Nov 2014 (Local Time) from KUTS Reporting Station
Overcast Overcast  
Wind Chill: 60°   Ceiling: 300
Heat Index: 60°   Visibility: 9mi
Dew Point: 58°   Wind: 6mph
Humidity: 93%   Direction: 220°SW
Pressure: 29.64"   Gusts: NA
Location:  30.54°N, 95.84°W
Report Text: KUTS 231253Z AUTO 22005KT 9SM OVC003 16/14 A2964 RMK AO2 RAB1158E40 SLP035 P0001 T01560144
Loading
Personal Weather Stations






























Interactive Weather Map New forecast layout! Learn more

10-Day Weather Forecast

Advertisements
Track Severe Weather on mobile